Latest Coastal Weather Observations for Red Rocks Point

IDW60701

Issued at 9:55 pm WST Wednesday 22 October 2014 (issued every 10 minutes, with the page automatically refreshed every 10 minutes)

About coastal observations | Map of coastal stations | Coastal observations for WA | Marine services | Other Formats
Station Details ID: 011053 Name: RED ROCKS POINT Lat: -32.20 Lon: 127.53 Height: 3.1 m
Data from the previous 72 hours. | See also: Recent months for locations in Western Australia
Date/Time
WST
Temp

°C
Wind Pressure Rain
since 9am
mm
Weather Cloud Vis
km
Sea
Height
m
Swell
Dir
 
Speed
knots
Gust
knots
hPa Trend Height
m
Period
s
Dir
22/09:30pm 16.8 E 18 20 1020.7 - 0.0 - - - - - - -
22/09:00pm 17.0 E 18 21 1020.8 - 0.0 - - - - - - -
22/08:30pm 17.1 E 18 21 1021.0 - 0.0 - - - - - - -
22/08:00pm 17.2 E 18 22 1021.1 - 0.0 - - - - - - -
22/07:30pm 17.2 E 18 21 1020.9 - 0.0 - - - - - - -
22/07:00pm 17.2 E 18 20 1021.2 - 0.0 - - - - - - -
22/06:30pm 17.3 E 18 20 1021.1 - 0.0 - - - - - - -
22/06:00pm 17.4 E 16 20 1021.1 - 0.0 - - - - - - -
22/05:30pm 17.5 E 18 20 1020.7 - 0.0 - - - - - - -
22/05:00pm 17.7 E 18 20 1020.8 - 0.0 - - - - - - -
22/04:30pm 17.7 E 17 20 1020.7 - 0.0 - - - - - - -
22/04:00pm 18.2 E 17 20 1021.0 - 0.0 - - - - - - -
22/03:30pm 18.4 ESE 17 19 1021.1 - 0.0 - - - - - - -
22/03:00pm 19.2 ESE 17 19 1021.3 - 0.0 - - - - - - -
22/02:30pm 19.2 ESE 16 19 1021.7 - 0.0 - - - - - - -
22/02:00pm 19.5 ESE 16 18 1021.9 - 0.0 - - - - - - -
22/01:30pm 20.0 ESE 14 17 1022.3 - 0.0 - - - - - - -
22/01:00pm 20.1 ESE 15 17 1022.6 - 0.0 - - - - - - -
22/12:30pm 20.1 ESE 15 17 1022.7 - 0.0 - - - - - - -
22/12:00pm 20.7 ESE 14 16 1022.8 - 0.0 - - - - - - -
22/11:30am 20.6 ESE 12 14 1023.2 - 0.0 - - - - - - -
22/11:00am 19.7 E 8 10 1023.6 - 0.0 - - - - - - -
22/10:30am 19.1 E 11 13 1023.8 - 0.0 - - - - - - -
22/10:00am 19.4 E 12 14 1024.0 - 0.0 - - - - - - -
22/09:00am 18.8 E 11 14 1024.3 - 0.0 - - - - - - -
22/08:30am 18.3 E 13 14 1024.2 - 0.0 - - - - - - -
22/08:00am 18.8 ESE 12 14 1024.1 - 0.0 - - - - - - -
22/07:30am 18.4 ESE 13 14 1024.1 - 0.0 - - - - - - -
22/07:00am 18.2 ESE 11 12 1024.2 - 0.0 - - - - - - -
22/06:30am 18.0 ESE 11 13 1023.7 - 0.0 - - - - - - -
22/06:00am 17.9 ESE 9 11 1023.5 - 0.0 - - - - - - -
22/05:30am 17.5 SE 8 11 1023.4 - 0.0 - - - - - - -
22/05:00am 17.5 SE 9 11 1023.0 - 0.0 - - - - - - -
22/04:30am 17.4 SE 9 11 1022.5 - 0.0 - - - - - - -
22/04:00am 17.4 SE 10 11 1022.5 - 0.0 - - - - - - -
22/03:30am 17.5 ESE 11 13 1022.3 - 0.0 - - - - - - -
22/03:00am 17.5 ESE 10 12 1022.2 - 0.0 - - - - - - -
22/02:30am 17.4 SE 10 11 1022.1 - 0.0 - - - - - - -
22/02:00am 17.3 SE 9 11 1022.1 - 0.0 - - - - - - -
22/01:30am 17.3 ESE 9 10 1022.2 - 0.0 - - - - - - -
22/01:00am 17.6 SE 5 7 1022.3 - 0.0 - - - - - - -
22/12:30am 17.7 SSE 5 7 1022.3 - 0.0 - - - - - - -
22/12:00am 17.6 S 7 8 1022.6 - 0.0 - - - - - - -
 
Date/Time
WST
Temp

°C
Wind Pressure Rain
since 9am
mm
Weather Cloud Vis
km
Sea
Height
m
Swell
Dir
 
Speed
knots
Gust
knots
hPa Trend Height
m
Period
s
Dir
21/11:30pm 17.8 SSE 7 9 1022.8 - 0.0 - - - - - - -
21/11:00pm 17.7 S 6 7 1023.0 - 0.0 - - - - - - -
21/10:30pm 17.8 S 9 11 1023.2 - 0.0 - - - - - - -
21/10:00pm 17.8 S 8 10 1023.4 - 0.0 - - - - - - -
21/09:30pm 17.8 SSE 9 10 1023.5 - 0.0 - - - - - - -
21/09:00pm 17.9 SSE 9 11 1023.7 - 0.0 - - - - - - -
21/08:30pm 18.1 SSE 9 11 1023.7 - 0.0 - - - - - - -
21/08:00pm 18.0 S 10 12 1023.6 - 0.0 - - - - - - -
21/07:30pm 18.0 S 11 13 1023.4 - 0.0 - - - - - - -
21/07:00pm 18.1 S 10 12 1023.0 - 0.0 - - - - - - -
21/06:30pm 17.9 S 11 15 1022.5 - 0.0 - - - - - - -
21/06:00pm 17.8 SSW 11 13 1022.1 - 0.0 - - - - - - -
21/05:30pm 18.2 S 12 14 1022.0 - 0.0 - - - - - - -
21/05:00pm 18.5 S 12 14 1021.5 - 0.0 - - - - - - -
21/04:30pm 19.2 S 11 13 1021.0 - 0.0 - - - - - - -
21/04:00pm 19.8 SSW 11 13 1020.6 - 0.0 - - - - - - -
21/03:30pm 20.1 S 12 16 1020.4 - 0.0 - - - - - - -
21/03:00pm 20.8 S 12 15 1020.1 - 0.0 - - - - - - -
21/02:30pm 21.0 S 12 15 1020.0 - 0.0 - - - - - - -
21/02:00pm 21.1 S 13 15 1019.9 - 0.0 - - - - - - -
21/01:30pm 21.8 S 13 16 1020.0 - 0.0 - - - - - - -
21/01:00pm 22.2 SSW 13 17 1020.2 - 0.0 - - - - - - -
21/12:30pm 22.1 SSW 13 17 1020.1 - 0.0 - - - - - - -
21/12:00pm 22.9 SSW 12 15 1020.3 - 0.0 - - - - - - -
21/11:30am 22.0 SSW 12 15 1020.4 - 0.0 - - - - - - -
21/11:00am 22.0 SW 12 14 1020.4 - 0.0 - - - - - - -
21/10:30am 22.4 SW 11 15 1020.2 - 0.0 - - - - - - -
21/10:00am 22.2 SW 12 15 1020.0 - 0.0 - - - - - - -
21/09:30am 22.8 WSW 11 15 1019.8 - 0.0 - - - - - - -
21/09:00am 23.4 SW 8 12 1019.9 - 0.0 - - - - - - -
21/08:30am 22.8 S 6 8 1019.8 - 0.0 - - - - - - -
21/08:00am 21.5 S 5 6 1019.7 - 0.0 - - - - - - -
21/07:30am 21.2 S 4 6 1019.3 - 0.0 - - - - - - -
21/07:00am 20.5 CALM 0 0 1019.0 - 0.0 - - - - - - -
21/06:30am 19.3 CALM 0 0 1018.9 - 0.0 - - - - - - -
21/06:00am 16.7 CALM 0 0 1018.4 - 0.0 - - - - - - -
21/05:30am 15.0 N 4 9 1018.1 - 0.0 - - - - - - -
21/05:00am 13.3 ENE 1 5 1017.7 - 0.0 - - - - - - -
21/04:30am 13.1 S 3 5 1017.3 - 0.0 - - - - - - -
21/04:00am 13.9 SW 5 7 1016.7 - 0.0 - - - - - - -
21/03:30am 12.9 W 6 9 1016.5 - 0.0 - - - - - - -
21/03:00am 13.1 CALM 0 0 1016.2 - 0.0 - - - - - - -
21/02:30am 13.2 CALM 0 0 1015.9 - 0.0 - - - - - - -
21/02:00am 13.4 CALM 0 0 1015.7 - 0.0 - - - - - - -
21/01:30am 14.9 W 7 9 1015.7 - 0.0 - - - - - - -
21/01:00am 14.4 CALM 0 0 1015.6 - 0.0 - - - - - - -
21/12:30am 14.4 CALM 0 0 1015.8 - 0.0 - - - - - - -
21/12:00am 14.5 CALM 0 0 1016.1 - 0.0 - - - - - - -
 
Date/Time
WST
Temp

°C
Wind Pressure Rain
since 9am
mm
Weather Cloud Vis
km
Sea
Height
m
Swell
Dir
 
Speed
knots
Gust
knots
hPa Trend Height
m
Period
s
Dir
20/11:30pm 15.2 CALM 0 0 1016.1 - 0.0 - - - - - - -
20/11:00pm 16.0 CALM 0 0 1016.2 - 0.0 - - - - - - -
20/10:30pm 18.2 CALM 0 0 1016.2 - 0.0 - - - - - - -
20/10:00pm 18.1 CALM 0 0 1016.4 - 0.0 - - - - - - -
20/09:30pm 18.4 CALM 0 0 1016.7 - 0.0 - - - - - - -
20/09:00pm 18.3 CALM 0 0 1016.4 - 0.0 - - - - - - -
20/08:30pm 18.4 SE 5 6 1016.2 - 0.0 - - - - - - -
20/08:00pm 18.6 SSE 6 7 1015.9 - 0.0 - - - - - - -
20/07:30pm 18.4 SE 5 7 1015.6 - 0.0 - - - - - - -
20/07:00pm 18.3 SSE 4 5 1015.0 - 0.0 - - - - - - -
20/06:30pm 18.8 SSE 5 7 1014.6 - 0.0 - - - - - - -
20/06:00pm 19.1 SSE 6 7 1014.2 - 0.0 - - - - - - -
20/05:30pm 19.8 SSE 9 11 1013.8 - 0.0 - - - - - - -
20/05:00pm 20.4 SSE 6 8 1013.5 - 0.0 - - - - - - -
20/04:30pm 20.8 S 7 13 1012.7 - 0.0 - - - - - - -
20/04:00pm 20.8 S 8 11 1012.1 - 0.0 - - - - - - -
20/03:30pm 21.5 S 11 14 1011.8 - 0.0 - - - - - - -
20/03:00pm 23.2 S 11 16 1011.4 - 0.0 - - - - - - -
20/02:39pm 26.9 SW 10 20 1011.4 - 0.0 - - - - - - -
20/02:30pm 32.0 NNW 11 22 1010.9 - 0.0 - - - - - - -
20/02:00pm 31.5 N 14 22 1011.1 - 0.0 - - - - - - -
20/01:30pm 30.5 NW 12 20 1011.2 - 0.0 - - - - - - -
20/01:00pm 31.2 N 13 24 1011.6 - 0.0 - - - - - - -
20/12:30pm 31.8 NNW 11 22 1012.1 - 0.0 - - - - - - -
20/12:00pm 30.9 N 13 21 1012.7 - 0.0 - - - - - - -
20/11:30am 28.9 N 15 22 1013.3 - 0.0 - - - - - - -
20/11:00am 26.6 NNE 17 25 1014.0 - 0.0 - - - - - - -
20/10:30am 25.2 NNE 18 25 1015.0 - 0.0 - - - - - - -
20/10:22am 25.0 N 15 25 1015.2 - 0.0 - - - - - - -
20/10:00am 23.8 N 10 17 1015.3 - 0.0 - - - - - - -
20/09:30am 22.5 N 9 12 1015.0 - 0.0 - - - - - - -
20/09:00am 21.0 NNW 2 7 1013.4 - 0.0 - - - - - - -
20/08:30am 19.5 NE 7 10 1012.7 - 0.0 - - - - - - -
20/08:00am 18.2 ENE 17 21 1011.8 - 0.0 - - - - - - -
20/07:30am 18.0 ENE 23 29 1012.4 - 0.0 - - - - - - -
20/07:00am 17.6 ENE 22 25 1012.6 - 0.0 - - - - - - -
20/06:59am 17.7 ENE 22 25 1012.5 - 0.0 - - - - - - -
20/06:51am 17.6 E 9 11 1012.4 - 0.0 - - - - - - -
20/06:30am 17.2 NE 8 15 1014.4 - 0.0 - - - - - - -
20/06:00am 16.8 ENE 19 25 1014.4 - 0.0 - - - - - - -
20/05:30am 16.7 ENE 9 20 1014.6 - 0.0 - - - - - - -
20/05:00am 16.6 NE 8 14 1016.1 - 0.0 - - - - - - -
20/04:30am 16.6 NE 6 9 1016.5 - 0.0 - - - - - - -
20/04:00am 17.1 E 9 11 1017.1 - 0.0 - - - - - - -
20/03:30am 16.9 E 7 9 1016.0 - 0.0 - - - - - - -
20/03:00am 16.9 SE 7 9 1015.0 - 0.0 - - - - - - -
20/02:30am 17.0 SE 11 13 1014.8 - 0.0 - - - - - - -
20/02:00am 17.1 ESE 12 14 1015.4 - 0.0 - - - - - - -
20/01:30am 17.3 E 11 14 1015.9 - 0.0 - - - - - - -
20/01:00am 17.2 E 8 10 1017.8 - 0.0 - - - - - - -
20/12:30am 16.8 SSW 3 7 1017.7 - 0.0 - - - - - - -
20/12:00am 17.1 W 4 7 1018.4 - 0.0 - - - - - - -
 
Date/Time
WST
Temp

°C
Wind Pressure Rain
since 9am
mm
Weather Cloud Vis
km
Sea
Height
m
Swell
Dir
 
Speed
knots
Gust
knots
hPa Trend Height
m
Period
s
Dir
19/11:30pm 17.3 NE 7 15 1018.5 - 0.0 - - - - - - -
19/11:00pm 17.4 E 14 16 1017.7 - 0.0 - - - - - - -
19/10:30pm 17.3 E 19 22 1017.4 - 0.0 - - - - - - -
19/10:00pm 17.2 E 20 27 1016.0 - 0.0 - - - - - - -
19/09:57pm 17.3 ENE 21 27 1016.2 - 0.0 - - - - - - -

Other Formats:

Comma delimited format used in spreadsheet applications
http://www.bom.gov.au/fwo/IDW60701/IDW60701.94644.axf

JavaScript Object Notation format (JSON) in row-major order
http://www.bom.gov.au/fwo/IDW60701/IDW60701.94644.json